Time;durP1;ratioP1;P1;durP2;ratioP2;P2;SDS_P1;SDS_P2;PMS_P1;PMS_P2;Temp;Humidity;BMP_temperature;BMP_pressure;BME280_temperature;BME280_humidity;BME280_pressure;Samples;Min_cycle;Max_cycle;Signal;HPM_P1;HPM_P2
2022/08/25 00:01:54;;;;;;;1.43;0.90;;;25.20;70.40;;;;;;6162599;23;21062;-77
2022/08/25 00:04:22;;;;;;;1.43;0.90;;;25.20;69.90;;;;;;6178234;23;20458;-75
2022/08/25 00:06:51;;;;;;;1.40;0.90;;;25.10;69.90;;;;;;6163298;23;20454;-76
2022/08/25 00:09:20;;;;;;;1.40;0.90;;;25.10;69.60;;;;;;6178315;23;20510;-77
2022/08/25 00:11:49;;;;;;;1.47;0.90;;;25.10;69.60;;;;;;6163293;23;20499;-76
2022/08/25 00:14:19;;;;;;;1.47;0.90;;;25.10;69.80;;;;;;6188235;23;20423;-76
2022/08/25 00:16:46;;;;;;;1.47;0.90;;;25.10;69.70;;;;;;6163454;23;20447;-76
2022/08/25 00:19:18;;;;;;;1.43;0.90;;;25.10;70.00;;;;;;6177570;23;20419;-76
2022/08/25 00:21:46;;;;;;;1.43;0.90;;;25.10;70.30;;;;;;6163924;23;20488;-76
2022/08/25 00:24:17;;;;;;;1.43;0.80;;;25.10;70.10;;;;;;6178680;23;20747;-75
2022/08/25 00:26:47;;;;;;;1.50;1.00;;;25.00;70.30;;;;;;6163227;23;21034;-76
2022/08/25 00:29:15;;;;;;;1.40;0.90;;;25.00;70.10;;;;;;6177701;23;20427;-75
2022/08/25 00:31:43;;;;;;;1.47;0.90;;;25.00;70.40;;;;;;6162515;23;21211;-76
2022/08/25 00:34:13;;;;;;;1.40;0.90;;;25.00;70.70;;;;;;6178229;23;20427;-76
2022/08/25 00:36:41;;;;;;;1.43;0.90;;;24.90;70.70;;;;;;6164095;23;20447;-76
2022/08/25 00:39:10;;;;;;;1.43;0.83;;;24.90;70.80;;;;;;6178125;23;20420;-76
2022/08/25 00:41:39;;;;;;;1.50;1.00;;;24.90;70.80;;;;;;6164275;23;20487;-76
2022/08/25 00:44:09;;;;;;;1.43;0.80;;;24.90;70.70;;;;;;6178665;23;20420;-76
2022/08/25 00:46:39;;;;;;;1.43;0.90;;;24.80;71.00;;;;;;6163184;23;20452;-76
2022/08/25 00:49:09;;;;;;;1.47;0.90;;;24.80;71.00;;;;;;6178295;23;20427;-76
2022/08/25 00:51:41;;;;;;;1.40;0.90;;;24.80;71.00;;;;;;6163622;23;20986;-76
2022/08/25 00:54:15;;;;;;;1.47;0.90;;;24.70;70.90;;;;;;6178784;23;20408;-76
2022/08/25 00:56:44;;;;;;;1.43;0.90;;;24.70;71.30;;;;;;6162596;23;20821;-76
2022/08/25 00:59:11;;;;;;;1.43;0.90;;;24.70;71.70;;;;;;6178240;23;20420;-76
2022/08/25 01:01:38;;;;;;;1.40;0.90;;;24.60;71.60;;;;;;6163063;23;20507;-76
2022/08/25 01:04:06;;;;;;;1.43;0.80;;;24.60;71.50;;;;;;6179067;23;20479;-76
2022/08/25 01:06:37;;;;;;;1.43;0.83;;;24.50;71.60;;;;;;6164675;23;20455;-76
2022/08/25 01:09:06;;;;;;;1.40;0.83;;;24.50;71.80;;;;;;6179161;23;20420;-75
2022/08/25 01:11:35;;;;;;;1.50;0.90;;;24.40;71.60;;;;;;6158242;23;20475;-78
2022/08/25 01:14:05;;;;;;;1.50;1.10;;;24.40;71.80;;;;;;6174020;23;20426;-76
2022/08/25 01:16:33;;;;;;;1.43;0.83;;;24.30;71.90;;;;;;6164117;23;20519;-76
2022/08/25 01:19:00;;;;;;;1.43;0.83;;;24.30;72.20;;;;;;6178771;23;20500;-76
2022/08/25 01:21:32;;;;;;;1.43;0.90;;;24.30;72.40;;;;;;6164501;23;20447;-75
2022/08/25 01:24:00;;;;;;;1.47;0.90;;;24.20;72.40;;;;;;6179765;23;20415;-76
2022/08/25 01:26:30;;;;;;;1.50;0.90;;;24.20;72.50;;;;;;6163981;23;21022;-76
2022/08/25 01:31:42;;;;;;;1.50;0.90;;;24.10;72.90;;;;;;6169302;23;20490;-76
2022/08/25 01:34:12;;;;;;;1.43;0.90;;;24.10;73.20;;;;;;6178426;23;20412;-76
2022/08/25 01:36:43;;;;;;;1.40;0.90;;;24.00;73.70;;;;;;6163453;23;20459;-76
2022/08/25 01:39:10;;;;;;;1.40;0.87;;;24.00;74.20;;;;;;6178378;23;20451;-76
2022/08/25 01:41:50;;;;;;;1.47;0.90;;;23.90;74.20;;;;;;6164385;23;20447;-76
2022/08/25 01:44:18;;;;;;;1.40;0.90;;;23.90;74.30;;;;;;6178479;23;20416;-76
2022/08/25 01:46:45;;;;;;;1.47;0.90;;;23.80;74.80;;;;;;6163649;23;20979;-75
2022/08/25 01:49:12;;;;;;;1.43;0.90;;;23.70;75.30;;;;;;6177900;23;20680;-74
2022/08/25 01:51:46;;;;;;;1.47;0.90;;;23.70;74.90;;;;;;6164247;23;20455;-76
2022/08/25 01:54:14;;;;;;;1.40;0.90;;;23.60;75.40;;;;;;6189160;23;20424;-76
2022/08/25 01:56:41;;;;;;;1.43;0.90;;;23.60;75.70;;;;;;6163881;23;20476;-76
2022/08/25 01:59:08;;;;;;;1.50;0.90;;;23.50;75.00;;;;;;6188780;23;20993;-76
2022/08/25 02:01:35;;;;;;;1.47;0.90;;;23.50;76.10;;;;;;6163761;23;20448;-76
2022/08/25 02:04:03;;;;;;;1.43;0.83;;;23.40;76.10;;;;;;6188402;23;20416;-76
2022/08/25 02:06:32;;;;;;;1.47;0.90;;;23.40;76.40;;;;;;6164600;23;20900;-76
2022/08/25 02:09:05;;;;;;;1.50;0.90;;;23.30;76.50;;;;;;6178899;23;20426;-76
2022/08/25 02:11:34;;;;;;;1.47;0.90;;;23.30;76.70;;;;;;6164519;23;20534;-76
2022/08/25 02:14:01;;;;;;;1.50;0.90;;;23.20;76.90;;;;;;6178491;23;20420;-76
2022/08/25 02:16:31;;;;;;;1.47;0.80;;;23.20;76.00;;;;;;6163350;23;20451;-75
2022/08/25 02:18:58;;;;;;;1.43;0.90;;;23.10;76.70;;;;;;6176307;23;20430;-76
2022/08/25 02:21:25;;;;;;;1.47;0.90;;;23.10;76.70;;;;;;6164056;23;21090;-76
2022/08/25 02:23:52;;;;;;;1.50;0.90;;;23.10;77.30;;;;;;6178146;23;20505;-76
2022/08/25 02:26:21;;;;;;;1.50;1.00;;;23.10;76.90;;;;;;6163870;23;20459;-76
2022/08/25 02:28:50;;;;;;;1.47;0.90;;;23.10;77.10;;;;;;6176165;23;20965;-76
2022/08/25 02:31:19;;;;;;;1.47;0.90;;;23.00;77.40;;;;;;6163623;23;20923;-75
2022/08/25 02:33:47;;;;;;;1.43;0.90;;;23.00;77.40;;;;;;6177645;23;20790;-76
2022/08/25 02:36:14;;;;;;;1.47;0.90;;;23.00;77.20;;;;;;6163333;23;20511;-75
2022/08/25 02:38:42;;;;;;;1.47;0.90;;;23.00;77.50;;;;;;6178622;23;20424;-76
2022/08/25 02:41:12;;;;;;;1.43;0.90;;;23.00;77.70;;;;;;6163765;23;20497;-76
2022/08/25 02:43:42;;;;;;;2.23;1.40;;;23.00;78.00;;;;;;6178691;23;20423;-75
2022/08/25 02:46:10;;;;;;;1.47;0.90;;;23.00;78.20;;;;;;6163627;23;20454;-76
2022/08/25 02:48:37;;;;;;;1.50;0.90;;;22.90;78.70;;;;;;6176775;23;20431;-75
2022/08/25 02:51:05;;;;;;;1.40;0.90;;;22.90;78.50;;;;;;6164005;23;20447;-76
2022/08/25 02:53:34;;;;;;;1.47;0.90;;;22.80;79.00;;;;;;6178443;23;20427;-76
2022/08/25 02:56:02;;;;;;;1.43;0.90;;;22.80;78.80;;;;;;6163392;23;20468;-75
2022/08/25 02:58:29;;;;;;;1.47;0.90;;;22.80;79.00;;;;;;6178525;23;20455;-76
2022/08/25 03:00:57;;;;;;;1.43;0.90;;;22.70;79.30;;;;;;6164112;23;20480;-76
2022/08/25 03:03:24;;;;;;;1.47;0.90;;;22.70;79.40;;;;;;6178191;23;20434;-75
2022/08/25 03:05:51;;;;;;;1.43;0.90;;;22.70;79.70;;;;;;6162296;23;20502;-76
2022/08/25 03:08:18;;;;;;;1.57;1.17;;;22.70;80.00;;;;;;6178158;23;20451;-76
2022/08/25 03:10:45;;;;;;;1.47;0.90;;;22.70;80.30;;;;;;6179826;23;20446;-76
2022/08/25 03:13:12;;;;;;;1.43;0.90;;;22.70;79.50;;;;;;6161441;23;20428;-76
2022/08/25 03:15:41;;;;;;;1.47;0.80;;;22.70;80.80;;;;;;6177770;23;20443;-76
2022/08/25 03:18:10;;;;;;;1.50;0.90;;;22.60;81.20;;;;;;6162320;23;20448;-76
2022/08/25 03:20:38;;;;;;;1.87;1.33;;;22.60;80.60;;;;;;6178528;23;20458;-76
2022/08/25 03:23:06;;;;;;;1.47;0.90;;;22.60;81.30;;;;;;6162402;23;20444;-76
2022/08/25 03:28:18;;;;;;;1.40;0.90;;;22.60;81.40;;;;;;6185510;23;20434;-75
2022/08/25 03:30:45;;;;;;;1.50;0.90;;;22.60;80.90;;;;;;6179892;23;20443;-76
2022/08/25 03:33:14;;;;;;;1.47;0.90;;;22.60;81.10;;;;;;6162290;23;20448;-76
2022/08/25 03:35:41;;;;;;;1.43;0.90;;;22.60;81.00;;;;;;6178427;23;20443;-76
2022/08/25 03:38:07;;;;;;;1.47;0.90;;;22.50;81.20;;;;;;6161672;23;20458;-76
2022/08/25 03:40:34;;;;;;;1.50;0.90;;;22.50;81.40;;;;;;6180231;23;20501;-76
2022/08/25 03:43:02;;;;;;;1.50;0.90;;;22.40;81.70;;;;;;6162700;23;20531;-76
2022/08/25 03:45:29;;;;;;;1.43;0.90;;;22.40;82.40;;;;;;6178787;23;21024;-76
2022/08/25 03:47:56;;;;;;;1.40;0.90;;;22.40;82.60;;;;;;6162408;23;20476;-76
2022/08/25 03:50:25;;;;;;;1.47;0.90;;;22.30;82.50;;;;;;6179521;23;20513;-76
2022/08/25 03:52:53;;;;;;;1.47;0.90;;;22.30;81.70;;;;;;6162214;23;20526;-76
2022/08/25 03:55:23;;;;;;;1.50;0.90;;;22.20;82.60;;;;;;6178574;23;20468;-76
2022/08/25 03:57:50;;;;;;;1.50;0.90;;;22.20;83.00;;;;;;6162777;23;20455;-76
2022/08/25 04:00:18;;;;;;;1.47;0.90;;;22.10;83.30;;;;;;6179113;23;20428;-76
2022/08/25 04:02:46;;;;;;;1.50;0.90;;;22.10;83.20;;;;;;6162437;23;20444;-76
2022/08/25 04:05:13;;;;;;;1.43;0.90;;;22.10;82.90;;;;;;6178399;23;20806;-76
2022/08/25 04:07:42;;;;;;;1.50;0.90;;;22.10;82.80;;;;;;6163068;23;20448;-76
2022/08/25 04:10:11;;;;;;;1.40;0.90;;;22.00;83.00;;;;;;6178851;23;20420;-76
2022/08/25 04:12:39;;;;;;;1.50;0.90;;;22.00;82.80;;;;;;6162978;23;20943;-76
2022/08/25 04:15:08;;;;;;;1.47;0.90;;;22.00;82.50;;;;;;6179079;23;20443;-77
2022/08/25 04:17:38;;;;;;;1.43;0.90;;;21.90;82.80;;;;;;6162967;23;20475;-75
2022/08/25 04:20:08;;;;;;;1.40;0.90;;;21.90;82.70;;;;;;6178662;23;20443;-76
2022/08/25 04:22:37;;;;;;;1.47;0.90;;;21.90;82.80;;;;;;6165789;23;20459;-78
2022/08/25 04:25:07;;;;;;;1.43;0.90;;;21.90;82.90;;;;;;6191437;23;20443;-76
2022/08/25 04:27:36;;;;;;;1.50;0.90;;;21.90;82.90;;;;;;6162029;23;20518;-77
2022/08/25 04:30:04;;;;;;;1.43;0.90;;;21.90;82.50;;;;;;6177566;23;20910;-76
2022/08/25 04:32:31;;;;;;;1.50;0.90;;;21.90;83.30;;;;;;6162838;23;20454;-76
2022/08/25 04:34:59;;;;;;;1.50;0.90;;;21.90;83.10;;;;;;6178868;23;20444;-76
2022/08/25 04:37:26;;;;;;;1.47;0.90;;;21.90;82.80;;;;;;6162276;23;21343;-77
2022/08/25 04:39:53;;;;;;;1.50;0.90;;;21.90;82.60;;;;;;6179902;23;20420;-76
2022/08/25 04:42:21;;;;;;;1.43;0.90;;;21.90;82.50;;;;;;6165251;23;20482;-77
2022/08/25 04:44:49;;;;;;;1.47;0.90;;;21.90;83.20;;;;;;6180708;23;20451;-77
2022/08/25 04:47:16;;;;;;;1.47;0.90;;;21.90;83.50;;;;;;6164733;23;20970;-76
2022/08/25 04:49:44;;;;;;;1.43;0.90;;;21.90;83.30;;;;;;6180586;23;20487;-77
2022/08/25 04:52:11;;;;;;;1.47;0.90;;;21.90;83.40;;;;;;6165172;23;20514;-76
2022/08/25 04:54:39;;;;;;;1.47;0.90;;;21.90;83.80;;;;;;6180781;23;20466;-76
2022/08/25 04:57:06;;;;;;;1.40;0.90;;;21.90;83.70;;;;;;6165444;23;20521;-77
2022/08/25 04:59:35;;;;;;;1.43;0.90;;;21.90;84.30;;;;;;6181626;23;20451;-77
2022/08/25 05:02:04;;;;;;;1.47;0.90;;;22.00;84.50;;;;;;6165020;23;20478;-77
2022/08/25 05:04:32;;;;;;;1.43;0.90;;;22.00;83.80;;;;;;6181152;23;20423;-77
2022/08/25 05:07:00;;;;;;;1.43;0.90;;;22.00;84.20;;;;;;6164261;23;20448;-76
2022/08/25 05:09:28;;;;;;;1.40;0.90;;;22.00;84.30;;;;;;6179852;23;20922;-77
2022/08/25 05:11:56;;;;;;;1.40;0.90;;;22.00;84.70;;;;;;6164933;23;20912;-77
2022/08/25 05:14:24;;;;;;;1.43;0.90;;;22.00;84.80;;;;;;6189752;23;20430;-77
2022/08/25 05:16:53;;;;;;;1.40;0.90;;;22.00;84.50;;;;;;6164571;23;20522;-77
2022/08/25 05:19:21;;;;;;;1.47;0.90;;;22.00;84.80;;;;;;6179049;23;20415;-76
2022/08/25 05:21:48;;;;;;;1.43;0.90;;;22.10;84.50;;;;;;6163577;23;20791;-77
2022/08/25 05:24:16;;;;;;;1.43;0.90;;;22.10;84.50;;;;;;6178220;23;20431;-76
2022/08/25 05:26:43;;;;;;;1.43;0.80;;;22.10;85.00;;;;;;6165478;23;20444;-77
2022/08/25 05:29:10;;;;;;;1.47;0.90;;;22.10;85.60;;;;;;6178015;23;20478;-77
2022/08/25 05:31:38;;;;;;;1.43;0.90;;;22.10;85.50;;;;;;6163757;23;20499;-76
2022/08/25 05:34:08;;;;;;;1.43;0.90;;;22.10;86.00;;;;;;6178268;23;20726;-77
2022/08/25 05:36:37;;;;;;;1.50;0.90;;;22.10;86.30;;;;;;6163372;23;20483;-77
2022/08/25 05:39:05;;;;;;;1.40;0.90;;;22.20;86.20;;;;;;6192421;23;20904;-77
2022/08/25 05:41:32;;;;;;;1.43;0.90;;;22.20;86.50;;;;;;6171219;23;20452;-77
2022/08/25 05:44:00;;;;;;;1.50;1.10;;;22.30;85.80;;;;;;6179037;23;20430;-76
2022/08/25 05:46:27;;;;;;;1.47;0.90;;;22.40;85.60;;;;;;6163513;23;20456;-77
2022/08/25 05:48:55;;;;;;;1.43;0.90;;;22.60;85.80;;;;;;6178171;23;20428;-77
2022/08/25 05:51:24;;;;;;;1.50;0.90;;;22.70;85.70;;;;;;6163418;23;20443;-77
2022/08/25 05:53:51;;;;;;;1.43;0.90;;;22.90;84.70;;;;;;6179120;23;20569;-76
2022/08/25 05:56:20;;;;;;;1.47;0.90;;;23.10;84.90;;;;;;6163863;23;20451;-76
2022/08/25 05:58:48;;;;;;;1.50;0.90;;;23.20;84.00;;;;;;6178553;23;20420;-76
2022/08/25 06:04:09;;;;;;;1.43;0.90;;;23.40;83.60;;;;;;6188209;23;20391;-76
2022/08/25 06:06:39;;;;;;;1.47;0.90;;;23.60;83.40;;;;;;6170226;23;20458;-77
2022/08/25 06:09:08;;;;;;;1.40;0.90;;;23.80;83.20;;;;;;6178869;23;20424;-76
2022/08/25 06:11:38;;;;;;;1.40;0.90;;;23.90;82.60;;;;;;6163769;23;20448;-78
2022/08/25 06:14:06;;;;;;;1.47;0.87;;;24.00;82.10;;;;;;6179154;23;20415;-77
2022/08/25 06:16:33;;;;;;;1.47;0.90;;;24.20;81.70;;;;;;6163603;23;20452;-77
2022/08/25 06:19:01;;;;;;;1.47;0.90;;;24.30;81.70;;;;;;6178030;23;20914;-77
2022/08/25 06:21:28;;;;;;;1.40;0.90;;;24.50;81.50;;;;;;6163738;23;20448;-76
2022/08/25 06:23:57;;;;;;;1.60;1.20;;;24.60;81.20;;;;;;6188536;23;20903;-76
2022/08/25 06:26:25;;;;;;;1.47;0.90;;;24.70;81.00;;;;;;6163620;23;21041;-77
2022/08/25 06:28:53;;;;;;;1.47;0.90;;;24.80;80.80;;;;;;6185820;23;20507;-77
2022/08/25 06:31:21;;;;;;;1.47;0.90;;;24.90;80.20;;;;;;6163019;23;20451;-77
2022/08/25 06:33:49;;;;;;;1.50;0.90;;;25.00;80.20;;;;;;6177764;23;20428;-76
2022/08/25 06:36:17;;;;;;;1.47;0.90;;;25.10;80.20;;;;;;6161369;23;20447;-76
2022/08/25 06:38:45;;;;;;;1.50;1.00;;;25.10;80.00;;;;;;6180511;23;20424;-77
2022/08/25 06:41:15;;;;;;;1.50;1.20;;;25.20;79.80;;;;;;6168547;23;20494;-77
2022/08/25 06:43:44;;;;;;;1.47;0.90;;;25.30;79.80;;;;;;6179620;23;20424;-77
2022/08/25 06:46:12;;;;;;;1.43;0.90;;;25.50;79.60;;;;;;6164865;23;20785;-74
2022/08/25 06:48:40;;;;;;;1.50;0.87;;;25.80;78.60;;;;;;6180134;23;20455;-76
2022/08/25 06:51:08;;;;;;;1.60;1.40;;;25.80;77.80;;;;;;6166418;23;20442;-76
2022/08/25 06:53:36;;;;;;;1.50;0.90;;;25.80;78.10;;;;;;6188793;23;20424;-76
2022/08/25 06:56:05;;;;;;;1.47;0.90;;;25.80;78.00;;;;;;6173093;23;20443;-76
2022/08/25 06:58:34;;;;;;;1.47;0.93;;;26.00;77.90;;;;;;6177838;23;20424;-76
2022/08/25 07:01:08;;;;;;;1.50;0.90;;;26.10;77.10;;;;;;6158135;23;20424;-76
2022/08/25 07:03:37;;;;;;;1.50;0.90;;;26.20;77.10;;;;;;6185225;23;20426;-77
2022/08/25 07:06:05;;;;;;;1.43;0.90;;;26.40;76.30;;;;;;6161345;23;20482;-76
2022/08/25 07:08:34;;;;;;;1.77;1.00;;;26.50;76.20;;;;;;6184685;23;20758;-76
2022/08/25 07:11:05;;;;;;;1.47;0.83;;;26.70;75.80;;;;;;6163073;23;20430;-75
2022/08/25 07:13:35;;;;;;;1.43;0.80;;;26.90;74.30;;;;;;6177485;23;20400;-76
2022/08/25 07:16:03;;;;;;;1.50;0.80;;;26.90;74.30;;;;;;6162607;23;20436;-76
2022/08/25 07:18:30;;;;;;;1.50;1.00;;;26.90;74.20;;;;;;6176413;23;21002;-76
2022/08/25 07:20:57;;;;;;;1.47;0.90;;;26.90;74.60;;;;;;6164076;23;20822;-76
2022/08/25 07:23:29;;;;;;;1.47;0.90;;;27.00;74.50;;;;;;6189903;23;20423;-78
2022/08/25 07:25:56;;;;;;;1.47;0.90;;;27.00;74.50;;;;;;6163746;23;20773;-77
2022/08/25 07:28:24;;;;;;;1.50;0.90;;;27.00;74.30;;;;;;6184140;23;20758;-76
2022/08/25 07:30:53;;;;;;;1.43;0.90;;;27.20;74.00;;;;;;6163231;23;20464;-77
2022/08/25 07:33:21;;;;;;;1.50;0.90;;;27.30;73.70;;;;;;6176458;23;20447;-77
2022/08/25 07:35:47;;;;;;;1.40;0.83;;;27.50;73.10;;;;;;6163305;23;20443;-76
2022/08/25 07:38:15;;;;;;;1.50;0.80;;;27.50;73.30;;;;;;6175858;23;20431;-75
2022/08/25 07:40:42;;;;;;;1.50;0.90;;;27.60;72.90;;;;;;6179819;23;20430;-77
2022/08/25 07:43:10;;;;;;;1.50;0.80;;;27.70;73.40;;;;;;6162502;23;20451;-76
2022/08/25 07:45:39;;;;;;;1.47;0.93;;;27.80;72.50;;;;;;6177811;23;20451;-78
2022/08/25 07:48:10;;;;;;;1.40;0.90;;;28.00;72.70;;;;;;6161877;23;20447;-76
2022/08/25 07:50:40;;;;;;;1.40;0.90;;;28.30;71.70;;;;;;6176214;23;20486;-77
2022/08/25 07:53:09;;;;;;;1.43;0.90;;;28.40;71.30;;;;;;6159919;23;20768;-77
2022/08/25 07:55:37;;;;;;;1.40;0.90;;;28.40;70.50;;;;;;6187046;23;20442;-76
2022/08/25 07:58:07;;;;;;;1.73;1.40;;;28.30;70.60;;;;;;6160432;23;20459;-76
2022/08/25 08:00:36;;;;;;;1.47;0.80;;;28.30;71.40;;;;;;6177683;23;21033;-76
2022/08/25 08:03:05;;;;;;;1.60;1.20;;;28.30;70.70;;;;;;6160118;23;20855;-76
2022/08/25 08:05:35;;;;;;;1.47;0.80;;;28.40;71.30;;;;;;6186311;23;20450;-76
2022/08/25 08:08:02;;;;;;;1.40;0.80;;;28.50;70.80;;;;;;6159893;23;20463;-78
2022/08/25 08:10:30;;;;;;;1.40;0.83;;;28.60;70.70;;;;;;6178435;23;20431;-76
2022/08/25 08:12:57;;;;;;;1.40;0.90;;;28.70;70.40;;;;;;6161173;23;20444;-75
2022/08/25 08:15:25;;;;;;;1.40;0.80;;;28.70;70.00;;;;;;6179365;23;20683;-76
2022/08/25 08:17:52;;;;;;;1.47;0.80;;;28.60;70.40;;;;;;6164015;23;20502;-77
2022/08/25 08:20:19;;;;;;;1.40;0.80;;;28.80;70.50;;;;;;6179915;23;20447;-76
2022/08/25 08:22:48;;;;;;;1.40;0.90;;;29.10;70.20;;;;;;6162440;23;20451;-76
2022/08/25 08:25:16;;;;;;;1.43;0.87;;;29.30;69.10;;;;;;6183125;23;20451;-75
2022/08/25 08:27:44;;;;;;;1.40;0.87;;;29.40;69.20;;;;;;6165553;23;20447;-76
2022/08/25 08:30:13;;;;;;;1.50;1.00;;;29.60;68.40;;;;;;6178960;23;20819;-76
2022/08/25 08:32:40;;;;;;;1.43;0.80;;;29.60;68.10;;;;;;6178259;23;20447;-76
2022/08/25 08:35:10;;;;;;;1.43;0.80;;;29.60;68.50;;;;;;6178228;23;20773;-76
2022/08/25 08:37:40;;;;;;;1.50;0.80;;;29.70;68.50;;;;;;6162985;23;20510;-75
2022/08/25 08:40:13;;;;;;;1.60;1.00;;;29.60;68.10;;;;;;6179963;23;20423;-75
2022/08/25 08:42:53;;;;;;;1.43;0.80;;;29.60;68.80;;;;;;6163224;23;20443;-75
2022/08/25 08:45:28;;;;;;;1.47;0.80;;;29.60;68.30;;;;;;6178679;23;20788;-76
2022/08/25 08:48:14;;;;;;;1.50;0.90;;;29.70;70.10;;;;;;6179826;23;20411;-76
2022/08/25 08:50:55;;;;;;;1.60;1.27;;;29.90;68.90;;;;;;6179705;23;20711;-76
2022/08/25 08:53:27;;;;;;;1.43;0.80;;;30.00;68.30;;;;;;6162079;23;20502;-76
2022/08/25 08:55:58;;;;;;;1.40;0.80;;;30.10;68.20;;;;;;6162769;23;20509;-76
2022/08/25 08:58:31;;;;;;;1.50;1.00;;;30.30;68.00;;;;;;6177083;23;20415;-76
2022/08/25 09:01:00;;;;;;;1.40;0.80;;;30.50;67.70;;;;;;6163061;23;20451;-77
2022/08/25 09:03:34;;;;;;;1.47;0.80;;;30.60;66.90;;;;;;6187124;23;20430;-75
2022/08/25 09:06:05;;;;;;;1.47;0.80;;;30.60;67.30;;;;;;6162394;23;20467;-76
2022/08/25 09:08:33;;;;;;;1.43;0.80;;;30.80;67.10;;;;;;6186818;23;20481;-77
2022/08/25 09:11:10;;;;;;;1.40;0.80;;;30.80;67.20;;;;;;6187868;23;20423;-76
2022/08/25 09:13:49;;;;;;;1.47;0.80;;;30.90;66.50;;;;;;6178606;23;20431;-75
2022/08/25 09:19:22;;;;;;;1.40;0.80;;;31.20;66.10;;;;;;6188099;23;20450;-80
2022/08/25 09:21:57;;;;;;;1.60;1.23;;;31.30;65.40;;;;;;6162350;23;20451;-76
2022/08/25 09:24:39;;;;;;;1.47;0.80;;;31.40;65.40;;;;;;6189427;23;20549;-76
2022/08/25 09:27:17;;;;;;;1.70;1.40;;;31.40;66.00;;;;;;6162967;23;20855;-76
2022/08/25 09:29:56;;;;;;;1.43;0.80;;;31.50;65.70;;;;;;6179056;23;20404;-76
2022/08/25 09:32:24;;;;;;;1.60;1.10;;;31.60;64.90;;;;;;6166768;23;20489;-76
2022/08/25 09:34:54;;;;;;;1.47;1.00;;;31.70;65.80;;;;;;6176958;23;20831;-76
2022/08/25 09:37:24;;;;;;;1.43;0.80;;;32.00;66.10;;;;;;6163851;23;20455;-76
2022/08/25 09:39:51;;;;;;;1.40;0.80;;;32.20;64.60;;;;;;6177394;23;20455;-79
2022/08/25 09:42:21;;;;;;;1.43;0.80;;;32.20;64.50;;;;;;6190149;23;20964;-78
2022/08/25 09:44:49;;;;;;;1.47;0.80;;;32.40;63.70;;;;;;6188695;23;20799;-77
2022/08/25 09:47:23;;;;;;;1.40;0.80;;;32.50;63.80;;;;;;6167832;23;20466;-77
2022/08/25 09:49:58;;;;;;;1.40;0.80;;;32.50;63.90;;;;;;6179219;23;20451;-77
2022/08/25 09:52:35;;;;;;;1.50;0.80;;;32.70;64.40;;;;;;6163520;23;20505;-77
2022/08/25 09:55:30;;;;;;;2.87;1.57;;;33.00;63.80;;;;;;6180046;23;20443;-77
2022/08/25 09:58:00;;;;;;;1.43;0.90;;;33.20;62.60;;;;;;6162148;23;21038;-77
2022/08/25 10:00:30;;;;;;;1.83;1.40;;;33.40;62.70;;;;;;6189668;23;20921;-77
2022/08/25 10:03:14;;;;;;;1.40;0.80;;;33.40;62.00;;;;;;6160541;23;20314;-76
2022/08/25 10:05:58;;;;;;;1.47;0.80;;;33.50;62.60;;;;;;6188113;23;20195;-77
2022/08/25 10:08:31;;;;;;;1.43;0.80;;;33.60;61.60;;;;;;6161784;23;20219;-77
2022/08/25 10:11:00;;;;;;;1.40;0.80;;;33.70;61.60;;;;;;6163145;23;20428;-77
2022/08/25 10:13:38;;;;;;;1.40;0.80;;;33.70;60.90;;;;;;6176538;23;20220;-77
2022/08/25 10:16:09;;;;;;;1.43;0.80;;;33.70;61.50;;;;;;6171963;23;20196;-77
2022/08/25 10:18:37;;;;;;;1.40;0.80;;;33.90;60.80;;;;;;6176284;23;20279;-77
2022/08/25 10:21:09;;;;;;;1.40;0.80;;;34.20;60.80;;;;;;6179827;23;20182;-76
2022/08/25 10:23:39;;;;;;;1.43;0.80;;;34.20;59.80;;;;;;6179982;23;20520;-76
2022/08/25 10:26:15;;;;;;;1.50;0.80;;;34.30;58.90;;;;;;6164892;23;20221;-76
2022/08/25 10:29:06;;;;;;;1.50;1.20;;;34.20;59.70;;;;;;6177435;23;20171;-78
2022/08/25 10:31:40;;;;;;;1.40;0.80;;;34.00;60.00;;;;;;6163435;23;20314;-78
2022/08/25 10:34:19;;;;;;;1.40;0.90;;;33.90;60.00;;;;;;6179090;23;20211;-77
2022/08/25 11:14:12;;;;;;;1.40;0.90;;;35.50;56.60;;;;;;6119685;23;20560;-76
2022/08/25 11:16:46;;;;;;;1.40;0.80;;;35.60;56.80;;;;;;6122791;23;20267;-76
2022/08/25 11:19:25;;;;;;;1.40;0.80;;;35.70;57.00;;;;;;6131712;23;20624;-76
2022/08/25 11:22:04;;;;;;;2.63;1.33;;;35.70;56.40;;;;;;6122047;23;20603;-77
2022/08/25 11:24:45;;;;;;;1.40;0.80;;;35.60;56.10;;;;;;6131309;23;20193;-75
2022/08/25 11:27:18;;;;;;;1.40;0.95;;;35.20;56.10;;;;;;6131010;23;20185;-78
2022/08/25 11:30:00;;;;;;;1.42;1.10;;;35.10;57.50;;;;;;6124543;23;20182;-76
2022/08/25 11:32:32;;;;;;;1.40;0.90;;;35.40;57.00;;;;;;6135042;23;20215;-78
2022/08/25 11:35:06;;;;;;;1.40;0.80;;;35.60;56.10;;;;;;6134691;23;20189;-77
2022/08/25 11:37:45;;;;;;;1.40;0.90;;;35.80;56.20;;;;;;6125678;23;20196;-78
2022/08/25 11:40:39;;;;;;;1.40;0.80;;;36.00;55.90;;;;;;6124946;23;20174;-79
2022/08/25 11:43:27;;;;;;;1.40;0.80;;;36.10;56.20;;;;;;6124425;23;20209;-76
2022/08/25 11:46:22;;;;;;;1.40;0.80;;;36.10;53.60;;;;;;6133734;23;20198;-77
2022/08/25 11:49:13;;;;;;;2.97;2.17;;;35.80;55.10;;;;;;6135132;23;20173;-76
2022/08/25 11:51:48;;;;;;;1.40;1.08;;;35.70;56.20;;;;;;6134090;23;20173;-77
2022/08/25 11:54:28;;;;;;;1.40;0.90;;;35.70;54.40;;;;;;6133526;23;20181;-78
2022/08/25 11:57:09;;;;;;;1.40;0.80;;;35.80;56.60;;;;;;6122144;23;20162;-79
2022/08/25 12:00:12;;;;;;;1.40;0.80;;;36.00;53.60;;;;;;6134407;23;20173;-76
2022/08/25 12:02:43;;;;;;;1.40;0.80;;;35.90;52.80;;;;;;6115813;23;20240;-77
2022/08/25 12:05:27;;;;;;;1.40;0.80;;;36.00;52.10;;;;;;6130783;23;20184;-77
2022/08/25 12:11:00;;;;;;;2.85;1.35;;;36.20;52.40;;;;;;6132657;23;20185;-78
2022/08/25 12:13:42;;;;;;;1.40;0.80;;;36.40;52.70;;;;;;6122032;23;20224;-78
2022/08/25 12:16:48;;;;;;;1.40;0.80;;;36.70;52.20;;;;;;6130757;23;20602;-78
2022/08/25 12:19:49;;;;;;;1.40;0.80;;;36.70;51.70;;;;;;6064285;23;20646;-77
2022/08/25 12:22:55;;;;;;;1.40;0.80;;;36.60;51.40;;;;;;6130781;23;20194;-77
2022/08/25 12:25:48;;;;;;;1.40;0.80;;;36.60;50.60;;;;;;6121265;23;20196;-77
2022/08/25 12:28:40;;;;;;;1.40;0.80;;;36.60;51.40;;;;;;6119779;23;20241;-78
2022/08/25 12:31:19;;;;;;;1.40;1.00;;;36.70;51.30;;;;;;6122512;23;20289;-77
2022/08/25 12:34:02;;;;;;;1.40;0.80;;;36.80;50.70;;;;;;6130842;23;20203;-76
2022/08/25 12:36:33;;;;;;;1.40;0.80;;;36.40;51.60;;;;;;6131230;23;20252;-78
2022/08/25 12:39:18;;;;;;;1.40;0.80;;;36.20;52.10;;;;;;6122149;23;20162;-78
2022/08/25 12:41:56;;;;;;;1.40;0.80;;;36.30;52.00;;;;;;6120000;23;20169;-80
2022/08/25 12:44:42;;;;;;;1.40;0.80;;;36.20;52.30;;;;;;6121800;23;20236;-78
2022/08/25 12:47:46;;;;;;;1.40;0.80;;;36.40;52.30;;;;;;6123037;23;20161;-77
2022/08/25 12:50:36;;;;;;;1.40;0.80;;;36.50;52.60;;;;;;6130121;23;20225;-78
2022/08/25 12:53:12;;;;;;;1.40;0.80;;;36.60;52.40;;;;;;6139512;23;20197;-78
2022/08/25 12:55:46;;;;;;;1.40;0.80;;;36.50;52.20;;;;;;6135181;23;20697;-77
2022/08/25 12:58:14;;;;;;;1.40;0.80;;;36.40;51.80;;;;;;6127109;23;20177;-79
2022/08/25 13:00:59;;;;;;;4.80;2.45;;;36.50;51.80;;;;;;6127821;23;20185;-77
2022/08/25 13:03:44;;;;;;;2.40;1.30;;;36.50;51.70;;;;;;6129155;23;20209;-77
2022/08/25 13:06:36;;;;;;;1.40;0.80;;;36.70;52.70;;;;;;6137511;23;20277;-78
2022/08/25 13:10:03;;;;;;;1.40;1.00;;;37.10;52.10;;;;;;6121655;23;20343;-79
2022/08/25 13:12:44;;;;;;;1.40;0.80;;;37.30;51.10;;;;;;6137709;23;20716;-80
2022/08/25 13:15:15;;;;;;;1.40;0.80;;;37.00;50.40;;;;;;6126831;23;20240;-78
2022/08/25 13:17:43;;;;;;;1.40;0.80;;;36.70;52.00;;;;;;6128697;23;20189;-79
2022/08/25 13:20:19;;;;;;;1.40;0.80;;;36.80;51.60;;;;;;6139047;23;20177;-79
2022/08/25 13:22:49;;;;;;;1.40;0.80;;;36.80;51.90;;;;;;6136852;23;20197;-76
2022/08/25 13:25:22;;;;;;;1.40;0.80;;;36.80;50.60;;;;;;6121688;23;20246;-79
2022/08/25 13:27:53;;;;;;;1.40;0.80;;;36.50;51.40;;;;;;6134436;23;20164;-77
2022/08/25 13:30:26;;;;;;;1.40;1.00;;;36.50;51.50;;;;;;6134452;23;20621;-78
2022/08/25 13:33:08;;;;;;;1.40;0.80;;;36.40;51.80;;;;;;6123002;23;20202;-80
2022/08/25 13:35:36;;;;;;;1.40;0.80;;;36.40;51.80;;;;;;6123240;23;20484;-78
2022/08/25 13:38:20;;;;;;;1.40;1.00;;;36.40;53.00;;;;;;6123771;23;20192;-78
2022/08/25 13:40:55;;;;;;;1.40;0.80;;;36.80;52.30;;;;;;6137680;23;20181;-79
2022/08/25 13:43:22;;;;;;;2.50;2.30;;;36.70;51.10;;;;;;6129871;23;20266;-79
2022/08/25 13:45:50;;;;;;;1.38;0.80;;;36.70;51.30;;;;;;6121762;23;20205;-78
2022/08/25 13:48:33;;;;;;;2.03;1.00;;;36.80;51.40;;;;;;6118189;23;20233;-80
2022/08/25 13:51:09;;;;;;;1.40;0.80;;;36.90;51.00;;;;;;6121364;23;20185;-79
2022/08/25 13:53:36;;;;;;;1.40;0.85;;;37.10;51.40;;;;;;6119986;23;20205;-81
2022/08/25 13:56:06;;;;;;;1.40;0.80;;;37.20;51.20;;;;;;6119710;23;20178;-79
2022/08/25 13:58:36;;;;;;;1.35;0.80;;;37.50;50.80;;;;;;6120848;23;20653;-77
2022/08/25 14:01:09;;;;;;;1.33;0.80;;;37.80;50.30;;;;;;6119830;23;20181;-77
2022/08/25 14:03:38;;;;;;;1.38;0.80;;;37.40;49.50;;;;;;6119920;23;20201;-78